Time;durP1;ratioP1;P1;durP2;ratioP2;P2;SDS_P1;SDS_P2;PMS_P1;PMS_P2;Temp;Humidity;BMP_temperature;BMP_pressure;BME280_temperature;BME280_humidity;BME280_pressure;Samples;Min_cycle;Max_cycle;Signal;HPM_P1;HPM_P2
2023/03/01 00:00:12;;;;;;;11.57;6.60;;;;;;;-2.72;78.09;103026.00;4945172;29;20031;-72
2023/03/01 00:02:39;;;;;;;8.98;6.40;;;;;;;-2.71;77.19;103030.44;4945110;29;20047;-73
2023/03/01 00:05:07;;;;;;;11.43;6.57;;;;;;;-2.73;77.55;103030.44;4945146;29;20039;-72
2023/03/01 00:07:32;;;;;;;11.32;6.53;;;;;;;-2.74;77.00;103023.31;4944669;29;20071;-73
2023/03/01 00:09:57;;;;;;;10.07;6.93;;;;;;;-2.78;77.63;103029.47;4930659;29;20090;-73
2023/03/01 00:12:23;;;;;;;17.88;7.57;;;;;;;-2.83;78.44;103021.38;4930069;29;20043;-73
2023/03/01 00:14:48;;;;;;;10.13;6.80;;;;;;;-2.84;78.52;103029.34;4928616;29;20024;-73
2023/03/01 00:17:14;;;;;;;10.57;6.20;;;;;;;-2.83;78.30;103026.72;4930253;29;20046;-73
2023/03/01 00:19:39;;;;;;;12.85;7.32;;;;;;;-2.85;78.34;103033.75;4944771;29;20134;-74
2023/03/01 00:22:05;;;;;;;12.20;7.38;;;;;;;-2.89;78.45;103025.69;4929799;29;20476;-73
2023/03/01 00:24:30;;;;;;;10.25;6.78;;;;;;;-2.93;78.39;103018.53;4933461;29;20050;-74
2023/03/01 00:26:56;;;;;;;13.98;7.40;;;;;;;-2.95;78.59;103028.25;4934096;29;20488;-74
2023/03/01 00:29:23;;;;;;;12.35;7.03;;;;;;;-2.95;79.41;103020.25;4933423;29;20150;-74
2023/03/01 00:31:48;;;;;;;11.60;7.32;;;;;;;-2.96;79.12;103021.13;4932113;29;20535;-73
2023/03/01 00:34:14;;;;;;;15.48;7.15;;;;;;;-2.99;78.51;103027.28;4933748;29;20043;-73
2023/03/01 00:36:39;;;;;;;12.50;7.20;;;;;;;-3.00;78.98;103022.84;4948178;29;20039;-74
2023/03/01 00:39:09;;;;;;;16.27;7.45;;;;;;;-3.05;79.38;103021.84;4933384;29;20459;-73
2023/03/01 00:41:35;;;;;;;18.20;7.55;;;;;;;-3.06;79.89;103022.72;4933318;29;20031;-73
2023/03/01 00:44:01;;;;;;;11.95;6.82;;;;;;;-3.05;79.92;103031.63;4932876;29;20031;-73
2023/03/01 00:46:27;;;;;;;14.90;7.45;;;;;;;-3.04;80.22;103031.63;4948446;29;20032;-73
2023/03/01 00:48:53;;;;;;;12.32;7.57;;;;;;;-3.01;80.16;103031.69;4947924;29;20050;-73
2023/03/01 00:51:21;;;;;;;13.02;6.97;;;;;;;-3.01;79.61;103021.06;4947854;28;20182;-73
2023/03/01 00:53:51;;;;;;;12.95;7.03;;;;;;;-3.01;79.79;103012.16;4947629;28;20039;-73
2023/03/01 00:56:16;;;;;;;13.57;6.93;;;;;;;-3.04;79.83;103012.09;4933263;29;20514;-73
2023/03/01 00:58:43;;;;;;;15.68;7.90;;;;;;;-2.98;80.32;103009.56;4946881;28;20044;-73
2023/03/01 01:01:16;;;;;;;15.73;7.28;;;;;;;-3.01;79.96;102997.09;4947862;29;20382;-74
2023/03/01 01:03:53;;;;;;;12.73;7.35;;;;;;;-3.03;79.52;103001.50;4952467;28;20094;-74
2023/03/01 01:06:22;;;;;;;12.45;7.68;;;;;;;-3.06;80.24;102997.88;4951053;29;20244;-74
2023/03/01 01:08:48;;;;;;;13.73;6.85;;;;;;;-3.12;79.86;102996.91;4936339;29;20043;-74
2023/03/01 01:11:14;;;;;;;15.55;7.32;;;;;;;-3.16;79.65;102995.06;4947839;29;20057;-74
2023/03/01 01:13:40;;;;;;;13.82;7.07;;;;;;;-3.16;79.57;102999.47;4932645;29;20465;-74
2023/03/01 01:16:06;;;;;;;13.55;6.80;;;;;;;-3.20;80.49;102998.50;4947382;28;20081;-73
2023/03/01 01:18:32;;;;;;;13.80;7.80;;;;;;;-3.21;80.98;103003.81;4947513;29;20047;-74
2023/03/01 01:20:57;;;;;;;13.77;7.53;;;;;;;-3.21;80.75;102994.06;4947999;29;20126;-74
2023/03/01 01:23:23;;;;;;;12.20;7.20;;;;;;;-3.22;81.06;102991.34;4929903;29;20038;-74
2023/03/01 01:25:48;;;;;;;14.15;7.47;;;;;;;-3.25;80.05;102988.66;4947374;29;20102;-73
2023/03/01 01:28:14;;;;;;;14.30;7.82;;;;;;;-3.32;81.28;102984.97;4932158;29;20074;-73
2023/03/01 01:30:39;;;;;;;13.57;7.35;;;;;;;-3.38;80.74;102974.22;4947196;29;20067;-73
2023/03/01 01:33:04;;;;;;;11.77;7.13;;;;;;;-3.39;80.63;102973.31;4931104;29;20488;-73
2023/03/01 01:35:30;;;;;;;16.23;7.22;;;;;;;-3.39;80.66;102967.09;4932678;29;20384;-73
2023/03/01 01:37:55;;;;;;;14.18;7.75;;;;;;;-3.45;80.74;102961.63;4924155;29;20031;-73
2023/03/01 01:40:21;;;;;;;13.75;7.78;;;;;;;-3.46;80.00;102959.84;4932451;29;20562;-73
2023/03/01 01:42:46;;;;;;;12.10;7.38;;;;;;;-3.48;80.66;102957.16;4946549;28;20043;-73
2023/03/01 01:45:27;;;;;;;15.15;7.05;;;;;;;-3.48;81.10;102957.16;4940874;29;20042;-73
2023/03/01 01:47:57;;;;;;;12.68;7.20;;;;;;;-3.49;81.18;102965.13;4946468;28;20028;-73
2023/03/01 01:50:23;;;;;;;14.45;8.32;;;;;;;-3.49;81.72;102949.19;4947110;29;20483;-73
2023/03/01 01:52:51;;;;;;;12.68;6.53;;;;;;;-3.48;82.02;102951.84;4931928;29;20546;-73
2023/03/01 01:55:27;;;;;;;18.83;8.00;;;;;;;-3.49;82.35;102949.19;4934109;29;20255;-73
2023/03/01 01:57:56;;;;;;;11.40;6.43;;;;;;;-3.46;82.19;102955.44;4938202;28;20541;-73
2023/03/01 02:00:25;;;;;;;12.02;6.40;;;;;;;-3.43;82.24;102951.94;4950094;29;20034;-73
2023/03/01 02:03:02;;;;;;;12.13;6.70;;;;;;;-3.44;81.70;102945.72;4934031;29;20039;-73
2023/03/01 02:05:52;;;;;;;11.00;6.50;;;;;;;-3.48;81.82;102935.88;4950171;29;20039;-73
2023/03/01 02:08:20;;;;;;;8.40;6.78;;;;;;;-3.54;81.85;102940.19;4949087;29;20041;-73
2023/03/01 02:10:49;;;;;;;13.27;6.78;;;;;;;-3.62;81.87;102943.59;4951445;28;20526;-73
2023/03/01 02:13:14;;;;;;;12.90;7.57;;;;;;;-3.70;82.15;102931.00;4949029;28;20102;-73
2023/03/01 02:15:41;;;;;;;9.88;6.60;;;;;;;-3.72;82.87;102930.09;4951031;29;20035;-73
2023/03/01 02:18:09;;;;;;;15.90;7.20;;;;;;;-3.75;83.05;102927.38;4951031;29;20057;-73
2023/03/01 02:21:01;;;;;;;13.65;6.68;;;;;;;-3.75;82.89;102930.91;4948408;29;20490;-73
2023/03/01 02:23:27;;;;;;;9.40;6.10;;;;;;;-3.80;83.35;102913.09;4950710;28;20386;-73
2023/03/01 02:26:03;;;;;;;16.73;6.90;;;;;;;-3.75;83.54;102922.06;4933944;29;20097;-73
2023/03/01 02:28:34;;;;;;;16.10;7.07;;;;;;;-3.72;83.52;102920.34;4950610;28;20574;-73
2023/03/01 02:33:48;;;;;;;11.50;6.57;;;;;;;-3.75;84.11;102928.25;4950701;28;20065;-72
2023/03/01 02:36:26;;;;;;;14.73;6.95;;;;;;;-3.79;84.15;102917.53;4949178;29;20053;-73
2023/03/01 02:38:55;;;;;;;9.55;6.20;;;;;;;-3.75;84.26;102925.59;4948528;28;20050;-73
2023/03/01 02:41:22;;;;;;;12.32;7.30;;;;;;;-3.78;84.50;102920.22;4950777;29;20035;-72
2023/03/01 02:43:48;;;;;;;10.10;6.38;;;;;;;-3.80;84.55;102919.28;4948418;28;20030;-72
2023/03/01 02:46:17;;;;;;;13.40;7.10;;;;;;;-3.73;84.69;102928.28;4966927;28;20061;-72
2023/03/01 02:48:49;;;;;;;9.10;5.65;;;;;;;-3.65;84.44;102934.66;4948065;29;20113;-72
2023/03/01 02:51:34;;;;;;;10.70;5.88;;;;;;;-3.59;83.75;102929.47;4949278;29;20046;-72
2023/03/01 02:54:05;;;;;;;12.70;5.90;;;;;;;-3.56;84.15;102931.28;4948640;28;20035;-72
2023/03/01 02:56:31;;;;;;;11.45;6.30;;;;;;;-3.55;84.21;102931.31;4948898;28;20135;-73
2023/03/01 02:59:00;;;;;;;12.95;6.93;;;;;;;-3.50;83.81;102928.72;4950027;28;20039;-72
2023/03/01 03:01:36;;;;;;;11.57;6.43;;;;;;;-3.53;83.72;102926.94;4949107;28;20395;-73
2023/03/01 03:04:05;;;;;;;13.32;6.75;;;;;;;-3.52;83.55;102928.72;4950467;29;20035;-72
2023/03/01 03:06:32;;;;;;;8.68;6.07;;;;;;;-3.50;83.42;102915.44;4917318;29;20110;-72
2023/03/01 03:08:57;;;;;;;11.57;6.15;;;;;;;-3.50;83.82;102918.09;4948469;28;20446;-73
2023/03/01 03:11:23;;;;;;;12.20;6.10;;;;;;;-3.49;83.93;102919.91;4948925;29;20035;-72
2023/03/01 03:13:48;;;;;;;11.20;6.90;;;;;;;-3.48;84.11;102917.25;4948101;28;20061;-72
2023/03/01 03:16:15;;;;;;;13.23;6.22;;;;;;;-3.46;84.13;102923.50;4948663;29;20042;-72
2023/03/01 03:18:40;;;;;;;12.05;6.35;;;;;;;-3.43;83.94;102928.88;4948652;29;20070;-72
2023/03/01 03:21:12;;;;;;;10.68;6.20;;;;;;;-3.43;83.92;102920.00;4948367;28;20062;-72
2023/03/01 03:23:38;;;;;;;10.10;5.38;;;;;;;-3.38;83.81;102926.31;4950048;28;20356;-72
2023/03/01 03:26:05;;;;;;;9.73;5.35;;;;;;;-3.39;83.72;102924.53;4950024;29;20446;-72
2023/03/01 03:28:31;;;;;;;13.43;6.22;;;;;;;-3.39;83.66;102924.53;4949119;28;20118;-72
2023/03/01 03:30:56;;;;;;;12.93;5.75;;;;;;;-3.40;83.88;102925.41;4950298;29;20039;-72
2023/03/01 03:33:22;;;;;;;10.60;5.65;;;;;;;-3.45;83.70;102912.00;4932234;28;20039;-73
2023/03/01 03:35:49;;;;;;;9.73;5.07;;;;;;;-3.45;83.80;102913.75;4949756;29;20031;-72
2023/03/01 03:38:18;;;;;;;9.45;5.28;;;;;;;-3.44;83.85;102918.22;4948498;29;20134;-72
2023/03/01 03:40:47;;;;;;;13.65;5.82;;;;;;;-3.46;83.84;102911.97;4947335;29;20040;-72
2023/03/01 03:43:16;;;;;;;8.43;5.10;;;;;;;-3.43;83.72;102920.00;4949139;28;20102;-72
2023/03/01 03:45:44;;;;;;;9.95;5.40;;;;;;;-3.41;83.56;102915.59;4949726;28;20041;-72
2023/03/01 03:48:09;;;;;;;9.57;5.53;;;;;;;-3.38;83.33;102923.66;4948209;28;20403;-72
2023/03/01 03:50:36;;;;;;;11.35;5.55;;;;;;;-3.38;83.62;102923.66;4949943;29;20035;-73
2023/03/01 03:53:03;;;;;;;9.75;5.22;;;;;;;-3.37;83.39;102917.47;4949562;29;20139;-71
2023/03/01 03:55:30;;;;;;;10.10;5.05;;;;;;;-3.44;83.71;102899.59;4948785;28;20038;-72
2023/03/01 03:58:00;;;;;;;8.95;4.55;;;;;;;-3.38;83.74;102911.25;4951347;28;20082;-72
2023/03/01 04:00:26;;;;;;;11.80;5.78;;;;;;;-3.40;83.68;102909.44;4952649;29;20039;-72
2023/03/01 04:02:51;;;;;;;11.18;5.60;;;;;;;-3.39;83.38;102911.22;4953401;29;20396;-73
2023/03/01 04:05:18;;;;;;;7.80;5.28;;;;;;;-3.40;83.99;102902.34;4951933;29;20209;-72
2023/03/01 04:07:45;;;;;;;11.85;6.03;;;;;;;-3.42;83.70;102895.19;4953100;28;20049;-72
2023/03/01 04:10:14;;;;;;;11.52;5.85;;;;;;;-3.45;83.73;102897.78;4952943;28;20181;-72
2023/03/01 04:12:39;;;;;;;9.57;5.38;;;;;;;-3.48;83.76;102889.78;4951463;28;20598;-72
2023/03/01 04:15:13;;;;;;;10.55;5.38;;;;;;;-3.52;83.49;102894.13;4951595;28;20060;-72
2023/03/01 04:17:43;;;;;;;16.00;6.47;;;;;;;-3.57;83.99;102894.91;4935533;28;20130;-73
2023/03/01 04:20:17;;;;;;;9.50;5.78;;;;;;;-3.61;84.28;102885.97;4951657;28;20035;-72
2023/03/01 04:22:46;;;;;;;11.10;5.63;;;;;;;-3.64;84.58;102885.91;4951640;29;20122;-72
2023/03/01 04:25:13;;;;;;;8.82;5.25;;;;;;;-3.65;83.97;102890.34;4952988;28;20531;-72
2023/03/01 04:27:40;;;;;;;9.55;6.18;;;;;;;-3.67;84.52;102888.53;4935646;29;20026;-72
2023/03/01 04:30:07;;;;;;;10.55;5.40;;;;;;;-3.70;84.25;102885.81;4951277;28;20090;-72
2023/03/01 04:32:32;;;;;;;12.18;6.38;;;;;;;-3.73;84.54;102885.72;4952730;29;20045;-72
2023/03/01 04:34:58;;;;;;;9.32;5.80;;;;;;;-3.75;84.82;102887.47;4953362;29;20035;-72
2023/03/01 04:37:23;;;;;;;11.05;6.07;;;;;;;-3.79;85.05;102882.97;4939538;29;20093;-73
2023/03/01 04:39:49;;;;;;;12.02;6.30;;;;;;;-3.84;85.21;102880.22;4943594;29;20111;-72
2023/03/01 04:42:16;;;;;;;12.50;5.63;;;;;;;-3.90;84.97;102886.31;4952905;28;20142;-72
2023/03/01 04:44:42;;;;;;;13.93;6.85;;;;;;;-3.95;85.24;102884.44;4947001;29;20062;-72
2023/03/01 04:47:07;;;;;;;12.90;5.78;;;;;;;-3.97;85.13;102876.41;4951238;29;20505;-72
2023/03/01 04:49:32;;;;;;;10.05;5.53;;;;;;;-4.01;85.61;102869.28;4951210;29;20035;-72
2023/03/01 04:52:01;;;;;;;10.57;5.65;;;;;;;-4.01;85.84;102873.66;4952898;29;20030;-72
2023/03/01 04:54:32;;;;;;;13.00;6.70;;;;;;;-4.01;85.98;102865.69;4952209;28;20344;-72
2023/03/01 04:56:57;;;;;;;11.98;6.38;;;;;;;-4.05;86.08;102851.47;4952250;28;20035;-72
2023/03/01 04:59:23;;;;;;;10.75;6.43;;;;;;;-4.04;86.19;102865.66;4950368;28;20414;-72
2023/03/01 05:01:50;;;;;;;9.23;5.90;;;;;;;-4.06;86.48;102856.72;4952474;29;20523;-72
2023/03/01 05:04:15;;;;;;;10.40;5.78;;;;;;;-4.01;86.44;102865.69;4952252;28;20363;-72
2023/03/01 05:06:41;;;;;;;11.48;6.45;;;;;;;-3.99;86.76;102861.31;4950888;29;20042;-72
2023/03/01 05:09:06;;;;;;;10.63;6.38;;;;;;;-3.96;86.63;102864.94;4948885;28;20027;-72
2023/03/01 05:11:35;;;;;;;12.80;6.22;;;;;;;-3.90;86.36;102869.47;4950916;29;20118;-72
2023/03/01 05:14:02;;;;;;;11.60;6.07;;;;;;;-3.91;86.52;102862.38;4951426;28;20143;-72
2023/03/01 05:16:27;;;;;;;11.52;6.75;;;;;;;-3.89;86.50;102853.53;4952352;29;20379;-73
2023/03/01 05:18:52;;;;;;;13.15;6.95;;;;;;;-3.87;86.39;102857.13;4950593;29;20082;-73
2023/03/01 05:21:18;;;;;;;11.32;6.53;;;;;;;-3.87;86.29;102858.88;4950367;28;20066;-72
2023/03/01 05:23:44;;;;;;;17.77;6.90;;;;;;;-3.86;86.42;102858.03;4951534;28;20118;-73
2023/03/01 05:26:09;;;;;;;10.35;6.72;;;;;;;-3.87;86.47;102853.56;4952088;29;20086;-72
2023/03/01 05:28:35;;;;;;;11.70;6.45;;;;;;;-3.87;86.71;102845.59;4949967;28;20031;-72
2023/03/01 05:31:01;;;;;;;11.52;6.85;;;;;;;-3.87;86.39;102837.59;4951893;29;20031;-72
2023/03/01 05:33:27;;;;;;;12.05;7.20;;;;;;;-3.89;86.34;102840.25;4952020;28;20474;-72
2023/03/01 05:35:53;;;;;;;16.58;7.30;;;;;;;-3.92;86.34;102837.56;4951659;28;20370;-73
2023/03/01 05:38:19;;;;;;;12.52;7.22;;;;;;;-3.98;86.35;102825.88;4951689;29;20283;-72
2023/03/01 05:40:48;;;;;;;10.20;6.63;;;;;;;-4.02;86.72;102826.69;4951474;28;20102;-72
2023/03/01 05:43:15;;;;;;;14.00;6.97;;;;;;;-4.06;86.82;102819.50;4951009;28;20027;-72
2023/03/01 05:45:42;;;;;;;14.07;6.43;;;;;;;-4.15;87.10;102810.53;4951223;28;20110;-72
2023/03/01 05:48:08;;;;;;;12.05;7.30;;;;;;;-4.15;87.30;102815.84;4951272;29;20463;-72
2023/03/01 05:50:36;;;;;;;15.65;7.10;;;;;;;-4.17;87.35;102816.66;4951449;29;20035;-72
2023/03/01 05:53:07;;;;;;;13.60;6.25;;;;;;;-4.19;87.21;102819.28;4951079;28;20035;-72
2023/03/01 05:55:33;;;;;;;16.85;7.40;;;;;;;-4.18;87.69;102821.06;4948904;29;20432;-75
2023/03/01 05:58:01;;;;;;;14.15;7.10;;;;;;;-4.15;87.65;102821.16;4950030;28;20392;-73
2023/03/01 06:00:28;;;;;;;12.35;6.97;;;;;;;-4.16;87.47;102816.69;4951713;29;20035;-72
2023/03/01 06:02:55;;;;;;;14.82;6.90;;;;;;;-4.15;87.72;102820.22;4950187;29;20039;-72
2023/03/01 06:05:20;;;;;;;9.85;6.28;;;;;;;-4.16;87.78;102816.69;4949984;29;20045;-72
2023/03/01 06:07:46;;;;;;;13.55;6.50;;;;;;;-4.17;88.13;102817.53;4949365;28;20062;-73
2023/03/01 06:10:12;;;;;;;10.07;6.05;;;;;;;-4.17;87.38;102816.66;4951422;28;20054;-72
2023/03/01 06:12:39;;;;;;;16.73;6.95;;;;;;;-4.25;87.80;102819.16;4949176;28;20097;-73
2023/03/01 06:15:06;;;;;;;13.30;6.93;;;;;;;-4.27;88.09;102818.22;4949263;28;20491;-73
2023/03/01 06:17:37;;;;;;;11.98;6.18;;;;;;;-4.29;88.16;102819.97;4950681;28;20043;-72
2023/03/01 06:20:12;;;;;;;10.13;6.30;;;;;;;-4.28;88.21;102813.78;4950054;28;20475;-73
2023/03/01 06:22:37;;;;;;;10.70;6.30;;;;;;;-4.37;88.15;102811.84;4949143;29;20042;-72
2023/03/01 06:25:03;;;;;;;12.27;7.00;;;;;;;-4.42;88.45;102810.84;4949174;28;20031;-73
2023/03/01 06:27:29;;;;;;;13.23;6.75;;;;;;;-4.50;88.44;102807.13;4950845;28;20386;-72
2023/03/01 06:29:54;;;;;;;12.45;7.10;;;;;;;-4.40;88.95;102821.50;4950579;28;20039;-72
2023/03/01 06:32:20;;;;;;;12.80;6.82;;;;;;;-4.39;88.74;102823.28;4950750;29;20031;-72
2023/03/01 06:34:45;;;;;;;8.95;6.13;;;;;;;-4.35;88.89;102827.81;4950704;29;20038;-73
2023/03/01 06:37:11;;;;;;;16.50;7.07;;;;;;;-4.39;89.08;102813.53;4949136;28;20050;-73
2023/03/01 06:39:36;;;;;;;13.63;7.50;;;;;;;-4.32;88.64;102826.97;4948691;28;20031;-72
2023/03/01 06:42:01;;;;;;;11.20;7.28;;;;;;;-4.31;88.91;102829.66;4949075;28;20039;-73
2023/03/01 06:44:27;;;;;;;13.80;6.93;;;;;;;-4.30;88.72;102836.75;4948680;28;20490;-73
2023/03/01 06:46:53;;;;;;;16.98;7.03;;;;;;;-4.28;88.97;102832.38;4949084;29;20078;-73
2023/03/01 06:49:19;;;;;;;12.82;7.22;;;;;;;-4.28;89.29;102829.72;4949078;29;20069;-73
2023/03/01 06:51:45;;;;;;;13.90;6.63;;;;;;;-4.28;88.31;102826.19;4949874;28;20031;-73
2023/03/01 06:54:11;;;;;;;13.77;6.80;;;;;;;-4.21;89.08;102831.63;4948673;28;20035;-72
2023/03/01 06:56:36;;;;;;;16.15;7.68;;;;;;;-4.21;88.93;102830.75;4948524;28;20490;-73
2023/03/01 06:59:02;;;;;;;10.32;6.40;;;;;;;-4.19;88.72;102827.28;4949218;28;20070;-73
2023/03/01 07:01:29;;;;;;;15.45;6.70;;;;;;;-4.18;89.26;102829.06;4950632;29;20089;-73
2023/03/01 07:03:54;;;;;;;15.27;7.45;;;;;;;-4.11;89.22;102824.75;4950465;29;20035;-74
2023/03/01 07:06:20;;;;;;;13.10;7.03;;;;;;;-4.08;89.21;102819.50;4948758;29;20463;-73
2023/03/01 07:08:46;;;;;;;13.82;7.47;;;;;;;-4.07;89.00;102821.28;4949426;28;20035;-72
2023/03/01 07:11:11;;;;;;;16.00;7.45;;;;;;;-4.03;89.32;102824.91;4948541;29;20151;-72
2023/03/01 07:13:36;;;;;;;13.90;7.53;;;;;;;-3.99;89.11;102822.34;4948093;28;20027;-72
2023/03/01 07:16:02;;;;;;;16.30;7.22;;;;;;;-3.93;89.42;102821.53;4948561;29;20159;-73
2023/03/01 07:18:27;;;;;;;14.00;7.05;;;;;;;-3.89;89.17;102821.63;4950681;28;20438;-72
2023/03/01 07:20:52;;;;;;;12.40;7.45;;;;;;;-3.77;89.28;102822.75;4948499;29;20035;-73
2023/03/01 07:23:18;;;;;;;19.38;7.10;;;;;;;-3.72;89.25;102829.94;4949602;29;20023;-73
2023/03/01 07:25:44;;;;;;;13.93;8.00;;;;;;;-3.61;89.31;102832.78;4950192;28;20023;-73
2023/03/01 07:28:09;;;;;;;17.20;7.68;;;;;;;-2.99;88.24;102829.38;4948896;28;20122;-71
2023/03/01 07:30:34;;;;;;;15.40;7.20;;;;;;;-1.88;85.28;102827.28;4950268;28;20134;-73
2023/03/01 07:33:00;;;;;;;11.48;7.32;;;;;;;-1.14;82.20;102827.09;4954905;29;20038;-72
2023/03/01 07:35:26;;;;;;;15.43;6.93;;;;;;;-0.25;80.05;102835.66;4956527;28;20042;-73
2023/03/01 07:37:52;;;;;;;12.75;6.85;;;;;;;0.69;76.60;102832.28;4955626;28;20031;-73
2023/03/01 07:40:18;;;;;;;13.75;7.00;;;;;;;1.37;73.79;102827.78;4952311;28;20034;-73
2023/03/01 07:42:44;;;;;;;12.52;7.60;;;;;;;2.39;70.56;102814.78;4966506;28;20114;-72
2023/03/01 07:45:10;;;;;;;11.55;7.07;;;;;;;2.70;68.81;102820.81;4963901;28;20027;-72
2023/03/01 07:47:35;;;;;;;10.40;5.95;;;;;;;2.79;67.20;102821.63;4957698;28;20026;-73
2023/03/01 07:50:02;;;;;;;10.90;6.82;;;;;;;2.92;66.69;102817.03;4969601;28;20385;-72
2023/03/01 07:52:28;;;;;;;11.60;6.38;;;;;;;3.03;66.38;102830.38;4939092;28;20031;-72
2023/03/01 07:54:53;;;;;;;15.38;6.80;;;;;;;2.71;65.51;102817.25;4938834;29;20193;-72
2023/03/01 07:57:19;;;;;;;12.15;6.97;;;;;;;2.14;68.11;102822.97;4940247;28;20035;-72
2023/03/01 07:59:44;;;;;;;11.90;6.70;;;;;;;1.61;70.00;102820.56;4955272;28;20106;-73
2023/03/01 08:02:10;;;;;;;12.77;6.72;;;;;;;1.31;71.09;102822.44;4954812;28;20483;-73
2023/03/01 08:04:36;;;;;;;11.57;6.57;;;;;;;1.13;71.18;102814.44;4956187;29;20031;-74
2023/03/01 08:07:04;;;;;;;11.00;6.07;;;;;;;1.01;72.73;102826.94;4955790;28;20043;-73
2023/03/01 08:09:30;;;;;;;12.65;7.63;;;;;;;0.94;73.03;102830.53;4954341;28;20039;-74
2023/03/01 08:11:59;;;;;;;12.38;7.03;;;;;;;0.81;72.29;102822.50;4956176;28;20090;-74
2023/03/01 08:14:25;;;;;;;10.45;6.45;;;;;;;0.66;72.33;102829.63;4937846;29;20043;-73
2023/03/01 08:16:50;;;;;;;14.48;6.80;;;;;;;0.57;73.35;102823.38;4954722;29;20085;-74
2023/03/01 08:19:16;;;;;;;11.70;6.47;;;;;;;0.53;73.44;102838.53;4955691;28;20205;-74
2023/03/01 08:21:41;;;;;;;13.05;7.25;;;;;;;0.47;73.24;102825.16;4954518;28;20489;-74
2023/03/01 08:24:07;;;;;;;13.45;7.25;;;;;;;0.47;74.57;102834.09;4954165;28;20151;-74
2023/03/01 08:26:33;;;;;;;15.27;6.93;;;;;;;0.44;74.10;102826.03;4954261;28;20492;-74
2023/03/01 08:28:59;;;;;;;10.57;6.95;;;;;;;0.48;75.28;102829.63;4955236;28;20167;-74
2023/03/01 08:31:37;;;;;;;13.88;6.18;;;;;;;0.52;73.88;102820.69;4956334;29;20042;-75
2023/03/01 08:34:05;;;;;;;13.63;6.50;;;;;;;0.58;73.80;102817.13;4938494;28;20509;-75
2023/03/01 08:36:34;;;;;;;10.90;6.57;;;;;;;0.64;74.30;102818.00;4955666;28;20097;-74
2023/03/01 08:39:00;;;;;;;9.88;6.05;;;;;;;0.72;74.23;102818.91;4955414;28;20177;-75
2023/03/01 08:41:26;;;;;;;12.55;6.60;;;;;;;0.83;73.46;102813.53;4956015;29;20146;-74
2023/03/01 08:43:52;;;;;;;12.38;6.43;;;;;;;0.91;74.32;102806.41;4948633;28;20108;-75
2023/03/01 08:46:18;;;;;;;13.20;6.63;;;;;;;1.05;73.25;102801.03;4952565;28;20041;-76
2023/03/01 08:48:43;;;;;;;11.23;6.07;;;;;;;1.21;72.37;102800.13;4951498;29;20084;-75
2023/03/01 08:51:15;;;;;;;12.10;6.25;;;;;;;1.35;71.80;102800.06;4952517;28;20039;-75
2023/03/01 08:53:41;;;;;;;9.35;6.57;;;;;;;1.44;70.89;102794.66;4952351;28;20527;-73
2023/03/01 08:56:07;;;;;;;8.52;5.55;;;;;;;1.55;69.37;102791.06;4934945;28;20039;-74
2023/03/01 08:58:33;;;;;;;11.23;5.30;;;;;;;1.64;69.12;102791.94;4951648;28;20083;-74
2023/03/01 09:00:59;;;;;;;9.98;6.13;;;;;;;1.69;68.76;102787.44;4951661;29;20122;-73
2023/03/01 09:03:25;;;;;;;10.18;5.38;;;;;;;1.77;69.00;102798.13;4935480;29;20486;-75
2023/03/01 09:05:52;;;;;;;13.15;6.57;;;;;;;1.87;68.25;102797.19;4950959;28;20062;-74
2023/03/01 09:08:17;;;;;;;8.88;4.55;;;;;;;1.99;67.29;102788.16;4952447;29;20029;-74
2023/03/01 09:10:43;;;;;;;8.82;5.78;;;;;;;1.96;66.41;102783.72;4950913;28;20496;-75
2023/03/01 09:19:21;;;;;;;10.00;5.70;;;;;;;2.17;64.83;102777.31;4952343;29;20066;-74
2023/03/01 09:21:52;;;;;;;11.90;5.70;;;;;;;2.24;65.79;102771.03;4950222;28;20487;-74
2023/03/01 09:24:22;;;;;;;7.75;5.70;;;;;;;2.46;66.10;102777.09;4950319;28;20031;-75
2023/03/01 09:26:48;;;;;;;11.02;5.85;;;;;;;2.58;65.26;102770.75;4951641;28;20493;-75
2023/03/01 09:29:15;;;;;;;11.52;6.57;;;;;;;2.64;63.54;102762.63;4966863;28;20459;-75
2023/03/01 09:31:41;;;;;;;12.57;5.80;;;;;;;2.68;64.95;102767.09;4934717;29;20130;-76
2023/03/01 09:34:07;;;;;;;12.73;6.28;;;;;;;2.72;62.98;102767.97;4951895;29;20529;-75
2023/03/01 09:36:33;;;;;;;11.10;6.38;;;;;;;2.75;64.31;102759.84;4951500;28;20039;-75
2023/03/01 09:38:59;;;;;;;10.65;6.28;;;;;;;2.85;64.15;102755.31;4951915;28;20058;-76
2023/03/01 09:41:44;;;;;;;12.43;6.05;;;;;;;2.87;64.49;102754.38;4950789;29;20376;-76
2023/03/01 09:44:34;;;;;;;10.10;6.55;;;;;;;2.96;65.11;102753.38;4952620;28;20043;-76
2023/03/01 09:47:00;;;;;;;8.50;5.90;;;;;;;2.96;63.33;102756.97;4971336;28;20034;-75
2023/03/01 09:49:31;;;;;;;9.13;5.65;;;;;;;2.96;63.36;102756.09;4971376;28;20466;-75
2023/03/01 09:52:19;;;;;;;9.73;6.05;;;;;;;2.94;61.65;102758.78;4949469;29;20039;-76
2023/03/01 09:54:45;;;;;;;8.80;5.70;;;;;;;2.91;61.02;102750.75;4950505;28;20895;-76
2023/03/01 09:57:45;;;;;;;11.10;5.78;;;;;;;3.00;63.04;102747.09;4949707;28;20086;-75
2023/03/01 10:00:18;;;;;;;10.15;5.88;;;;;;;3.03;61.94;102737.19;4950429;29;20039;-76
2023/03/01 10:02:54;;;;;;;9.98;6.40;;;;;;;3.09;62.33;102741.59;4950187;28;20364;-76
2023/03/01 10:05:34;;;;;;;13.93;6.50;;;;;;;3.20;61.46;102736.09;4951684;28;20039;-76
2023/03/01 10:08:25;;;;;;;10.77;5.68;;;;;;;3.23;62.63;102731.59;4953769;28;20529;-76
2023/03/01 10:10:52;;;;;;;7.55;5.90;;;;;;;3.28;62.22;102721.66;4952915;28;20474;-78
2023/03/01 10:13:36;;;;;;;10.60;7.25;;;;;;;3.43;62.24;102712.50;4950126;28;20039;-77
2023/03/01 10:16:11;;;;;;;10.35;5.88;;;;;;;3.50;59.76;102716.91;4951569;29;20051;-77
2023/03/01 10:18:39;;;;;;;11.35;6.65;;;;;;;3.52;59.37;102717.75;4951316;28;20050;-77
2023/03/01 10:21:15;;;;;;;8.48;5.60;;;;;;;3.55;59.80;102715.03;4948518;29;20508;-78
2023/03/01 10:23:40;;;;;;;12.88;5.88;;;;;;;3.49;60.35;102695.38;4951058;28;20039;-78
2023/03/01 10:26:30;;;;;;;8.95;5.30;;;;;;;3.52;59.08;102712.38;4934215;29;20462;-79
2023/03/01 10:29:04;;;;;;;9.18;6.15;;;;;;;3.40;57.96;102691.00;4949861;28;20058;-78
2023/03/01 10:31:43;;;;;;;9.07;5.43;;;;;;;3.48;59.99;102707.94;4951532;29;20465;-77
2023/03/01 10:34:12;;;;;;;8.07;5.63;;;;;;;3.46;58.29;102687.38;4951783;29;20039;-79
2023/03/01 10:36:39;;;;;;;9.52;5.20;;;;;;;3.48;58.74;102693.59;4950861;28;20039;-79
2023/03/01 10:39:13;;;;;;;7.70;5.18;;;;;;;3.56;57.42;102692.59;4950858;28;20474;-78
2023/03/01 10:41:53;;;;;;;12.38;6.28;;;;;;;3.61;59.61;102699.72;4951434;29;20074;-78
2023/03/01 10:44:42;;;;;;;9.50;6.53;;;;;;;3.59;58.84;102689.00;4953762;28;20034;-78
2023/03/01 10:47:20;;;;;;;9.82;5.85;;;;;;;3.66;57.01;102685.28;4965286;28;20526;-79
2023/03/01 10:49:54;;;;;;;7.80;5.55;;;;;;;3.69;57.89;102689.75;4951056;29;20050;-79
2023/03/01 10:52:22;;;;;;;9.25;5.70;;;;;;;3.77;58.73;102688.69;4949363;28;20070;-78
2023/03/01 10:54:59;;;;;;;13.07;6.75;;;;;;;3.89;56.99;102686.75;4950303;28;20027;-77
2023/03/01 10:57:40;;;;;;;11.80;5.45;;;;;;;3.96;57.28;102686.63;4945682;28;20099;-78
2023/03/01 11:00:20;;;;;;;11.65;5.93;;;;;;;4.01;57.68;102681.16;4946049;29;20110;-78
2023/03/01 11:03:02;;;;;;;10.25;6.40;;;;;;;4.09;56.01;102679.25;4930167;29;20468;-79
2023/03/01 11:05:33;;;;;;;9.10;6.72;;;;;;;4.11;54.91;102672.06;4931614;29;20076;-78
2023/03/01 11:08:00;;;;;;;14.75;5.70;;;;;;;4.15;56.27;102667.47;4931756;29;20044;-78
2023/03/01 11:10:28;;;;;;;11.98;6.07;;;;;;;4.34;54.86;102677.94;4930183;29;20468;-78
2023/03/01 11:13:06;;;;;;;9.70;5.95;;;;;;;4.41;54.88;102676.03;4935268;29;20039;-78
2023/03/01 11:15:32;;;;;;;9.00;6.45;;;;;;;4.53;55.11;102677.63;4930146;29;20130;-77
2023/03/01 11:17:57;;;;;;;10.10;6.18;;;;;;;4.62;55.63;102677.47;4946115;29;20102;-78
2023/03/01 11:20:31;;;;;;;11.45;6.32;;;;;;;4.78;55.22;102683.44;4946109;29;20035;-78
2023/03/01 11:23:12;;;;;;;9.43;6.22;;;;;;;4.76;55.72;102680.78;4931216;28;20111;-78
2023/03/01 11:25:41;;;;;;;10.40;6.43;;;;;;;4.88;56.09;102679.66;4929688;29;20114;-77
2023/03/01 11:28:12;;;;;;;13.25;7.05;;;;;;;4.92;55.21;102672.41;4945754;28;20153;-76
2023/03/01 11:31:05;;;;;;;10.45;6.53;;;;;;;4.99;53.78;102664.16;4931121;29;20506;-78
2023/03/01 11:33:44;;;;;;;11.00;5.88;;;;;;;5.01;55.37;102661.44;4931328;29;20067;-80
2023/03/01 11:36:32;;;;;;;10.68;5.47;;;;;;;4.96;53.99;102657.94;4931145;29;20059;-77